createdAt,value
2023-04-03T00:01:50.390Z,0.89
2023-04-03T00:06:53.522Z,0.80
2023-04-03T00:11:56.608Z,0.96
2023-04-03T00:16:59.036Z,0.87
2023-04-03T00:22:01.378Z,0.92
2023-04-03T00:27:04.621Z,0.90
2023-04-03T00:32:07.071Z,0.73
2023-04-03T00:37:09.469Z,0.69
2023-04-03T00:42:12.025Z,0.86
2023-04-03T00:47:14.400Z,0.91
2023-04-03T00:52:17.330Z,1.10
2023-04-03T00:57:20.788Z,0.94
2023-04-03T01:02:23.288Z,0.94
2023-04-03T01:07:26.058Z,0.93
2023-04-03T01:12:29.162Z,0.74
2023-04-03T01:17:31.621Z,0.81
2023-04-03T01:22:34.068Z,0.76
2023-04-03T01:27:37.270Z,0.68
2023-04-03T01:32:39.654Z,0.75
2023-04-03T01:37:42.062Z,0.77
2023-04-03T01:42:44.399Z,0.83
2023-04-03T01:47:47.608Z,0.81
2023-04-03T01:52:50.819Z,0.80
2023-04-03T01:57:55.462Z,0.97
2023-04-03T02:02:58.812Z,0.95
2023-04-03T02:08:02.089Z,0.95
2023-04-03T02:13:05.286Z,1.08
2023-04-03T02:18:18.026Z,1.20
2023-04-03T02:23:20.405Z,1.27
2023-04-03T02:28:23.574Z,1.24
2023-04-03T02:33:26.126Z,1.22
2023-04-03T02:38:28.425Z,1.26
2023-04-03T02:43:30.836Z,1.19
2023-04-03T02:48:33.404Z,1.18
2023-04-03T02:53:36.148Z,1.12
2023-04-03T02:58:38.638Z,1.04
2023-04-03T03:03:41.028Z,1.21
2023-04-03T03:08:43.774Z,1.04
2023-04-03T03:13:46.189Z,1.07
2023-04-03T03:18:48.509Z,0.98
2023-04-03T03:23:51.669Z,1.03
2023-04-03T03:28:53.992Z,0.98
2023-04-03T03:33:56.723Z,1.09
2023-04-03T03:38:59.251Z,1.23
2023-04-03T03:44:01.677Z,1.09
2023-04-03T03:49:04.710Z,1.01
2023-04-03T03:54:07.940Z,0.98
2023-04-03T03:59:10.340Z,1.05
2023-04-03T04:04:13.544Z,1.04
2023-04-03T04:09:16.300Z,1.00
2023-04-03T04:14:27.477Z,0.92
2023-04-03T04:19:29.974Z,0.95
2023-04-03T04:24:32.407Z,0.87
2023-04-03T04:29:36.804Z,1.04
2023-04-03T04:34:39.214Z,0.94
2023-04-03T04:39:41.601Z,0.94
2023-04-03T04:44:44.764Z,1.07
2023-04-03T04:49:48.386Z,1.04
2023-04-03T04:54:50.942Z,1.12
2023-04-03T04:59:53.373Z,1.14
2023-04-03T05:04:56.012Z,1.19
2023-04-03T05:10:01.697Z,1.11
2023-04-03T05:15:04.179Z,1.08
2023-04-03T05:20:06.929Z,1.09
2023-04-03T05:25:09.294Z,1.15
2023-04-03T05:30:12.438Z,1.24
2023-04-03T05:35:24.860Z,1.16
2023-04-03T05:40:32.050Z,1.27
2023-04-03T05:45:35.370Z,1.27
2023-04-03T05:50:42.375Z,1.38
2023-04-03T05:55:54.886Z,1.37
2023-04-03T06:00:58.171Z,1.34
2023-04-03T06:06:01.371Z,1.45
2023-04-03T06:11:12.121Z,1.57
2023-04-03T06:16:16.318Z,1.69
2023-04-03T06:21:20.797Z,1.65
2023-04-03T06:26:28.275Z,1.70
2023-04-03T06:31:30.679Z,1.81
2023-04-03T06:36:34.022Z,1.83
2023-04-03T06:41:37.555Z,1.94
2023-04-03T06:46:41.724Z,1.99
2023-04-03T06:51:44.076Z,2.22
2023-04-03T06:56:47.177Z,2.46
2023-04-03T07:01:49.933Z,2.52
2023-04-03T07:06:53.877Z,2.41
2023-04-03T07:11:56.992Z,2.58
2023-04-03T07:16:59.322Z,2.95
2023-04-03T07:22:02.077Z,2.74
2023-04-03T07:27:04.955Z,2.50
2023-04-03T07:32:07.751Z,2.62
2023-04-03T07:37:11.245Z,2.41
2023-04-03T07:42:14.347Z,2.64
2023-04-03T07:47:18.269Z,2.90
2023-04-03T07:52:20.715Z,2.96
2023-04-03T07:57:23.477Z,2.90
2023-04-03T08:02:26.660Z,2.67
2023-04-03T08:07:29.401Z,2.63
2023-04-03T08:12:33.020Z,2.43
2023-04-03T08:17:35.745Z,2.54
2023-04-03T08:22:39.659Z,2.77
2023-04-03T08:27:41.996Z,3.20
2023-04-03T08:32:45.457Z,3.25
2023-04-03T08:37:48.732Z,2.93
2023-04-03T08:42:51.914Z,2.84
2023-04-03T08:47:56.411Z,3.03
2023-04-03T08:52:59.836Z,3.21
2023-04-03T08:58:03.399Z,3.25
2023-04-03T09:03:05.859Z,3.15
2023-04-03T09:08:08.604Z,3.79
2023-04-03T09:13:10.898Z,3.82
2023-04-03T09:18:13.215Z,3.51
2023-04-03T09:23:15.911Z,4.02
2023-04-03T09:28:18.392Z,4.20
2023-04-03T09:33:21.545Z,4.33
2023-04-03T09:38:23.860Z,4.08
2023-04-03T09:43:28.040Z,3.84
2023-04-03T09:48:30.888Z,3.79
2023-04-03T09:53:34.452Z,3.86
2023-04-03T09:58:48.924Z,3.74
2023-04-03T10:03:52.927Z,3.28
2023-04-03T10:08:56.748Z,3.29
2023-04-03T10:14:00.618Z,3.13
2023-04-03T10:19:03.445Z,3.45
2023-04-03T10:24:07.071Z,3.92
2023-04-03T10:29:10.273Z,3.88
2023-04-03T10:34:13.682Z,3.61
2023-04-03T10:39:17.416Z,3.25
2023-04-03T10:44:20.612Z,2.92
2023-04-03T10:49:24.168Z,2.66
2023-04-03T10:54:27.409Z,2.77
2023-04-03T10:59:29.799Z,2.85
2023-04-03T11:04:34.042Z,2.65
2023-04-03T11:09:38.173Z,2.79
2023-04-03T11:14:41.370Z,2.56
2023-04-03T11:19:44.676Z,2.69
2023-04-03T11:24:47.343Z,2.75
2023-04-03T11:29:50.438Z,2.87
2023-04-03T11:34:55.013Z,3.13
2023-04-03T11:39:57.658Z,3.83
2023-04-03T11:45:00.983Z,4.08
2023-04-03T11:50:03.748Z,4.59
2023-04-03T11:55:06.266Z,4.71
2023-04-03T12:00:10.733Z,4.57
2023-04-03T12:05:23.101Z,4.99
2023-04-03T12:10:32.326Z,5.26
2023-04-03T12:15:35.585Z,5.20
2023-04-03T12:20:39.565Z,5.37
2023-04-03T12:25:44.971Z,4.97
2023-04-03T12:30:48.560Z,4.82
2023-04-03T12:35:51.922Z,4.90
2023-04-03T12:40:55.619Z,5.70
2023-04-03T12:45:58.364Z,5.37
2023-04-03T12:51:00.839Z,5.25
2023-04-03T12:56:06.764Z,5.29
2023-04-03T13:01:19.909Z,5.32
2023-04-03T13:06:23.681Z,5.19
2023-04-03T13:11:26.175Z,5.89
2023-04-03T13:16:29.380Z,5.72
2023-04-03T13:21:32.638Z,5.66
2023-04-03T13:26:34.904Z,5.41
2023-04-03T13:31:39.785Z,5.03
2023-04-03T13:36:42.395Z,4.85
2023-04-03T13:41:44.791Z,4.88
2023-04-03T13:46:47.194Z,5.04
2023-04-03T13:51:54.226Z,5.17
2023-04-03T13:57:07.417Z,5.11
2023-04-03T14:02:11.248Z,5.40
2023-04-03T14:07:13.644Z,5.25
2023-04-03T14:12:30.062Z,5.81
2023-04-03T14:17:43.995Z,5.56
2023-04-03T14:22:54.626Z,5.31
2023-04-03T14:27:57.180Z,4.93
2023-04-03T14:32:59.939Z,4.97
2023-04-03T14:38:02.588Z,5.09
2023-04-03T14:43:05.091Z,4.95
2023-04-03T14:48:07.749Z,5.13
2023-04-03T14:53:10.058Z,4.90
2023-04-03T14:58:13.975Z,4.54
2023-04-03T15:03:17.572Z,4.49
2023-04-03T15:08:20.586Z,4.24
2023-04-03T15:13:23.826Z,4.20
2023-04-03T15:18:27.942Z,4.18
2023-04-03T15:23:32.472Z,4.01
2023-04-03T15:28:35.149Z,4.02
2023-04-03T15:33:37.638Z,3.96
2023-04-03T15:38:40.566Z,3.99
2023-04-03T15:43:43.021Z,3.99
2023-04-03T15:48:45.832Z,4.08
2023-04-03T15:53:49.332Z,4.11
2023-04-03T15:58:51.919Z,4.01
2023-04-03T16:03:55.021Z,3.96
2023-04-03T16:08:58.947Z,3.95
2023-04-03T16:14:01.393Z,3.87
2023-04-03T16:19:03.908Z,3.75
2023-04-03T16:24:06.575Z,3.55
2023-04-03T16:29:09.360Z,3.41
2023-04-03T16:34:22.442Z,3.41
2023-04-03T16:39:25.110Z,3.27
2023-04-03T16:44:29.845Z,3.21
2023-04-03T16:49:35.136Z,3.16
2023-04-03T16:54:37.598Z,3.16
2023-04-03T16:59:39.998Z,3.18
2023-04-03T17:04:53.330Z,3.04
2023-04-03T17:09:56.165Z,3.03
2023-04-03T17:15:08.591Z,3.08
2023-04-03T17:20:11.786Z,3.08
2023-04-03T17:25:15.917Z,3.10
2023-04-03T17:30:19.589Z,3.07
2023-04-03T17:35:31.954Z,2.83
2023-04-03T17:40:34.790Z,2.72
2023-04-03T17:45:37.549Z,2.61
2023-04-03T17:50:40.383Z,2.50
2023-04-03T17:55:43.702Z,2.43
2023-04-03T18:00:46.478Z,2.41
2023-04-03T18:05:50.812Z,2.38
2023-04-03T18:10:53.666Z,2.34
2023-04-03T18:15:56.606Z,2.26
2023-04-03T18:20:58.993Z,2.25
2023-04-03T18:26:02.613Z,2.19
2023-04-03T18:31:05.452Z,2.19
2023-04-03T18:36:08.129Z,2.16
2023-04-03T18:41:10.611Z,2.10
2023-04-03T18:46:13.728Z,1.97
2023-04-03T18:51:16.428Z,1.94
2023-04-03T18:56:18.810Z,1.87
2023-04-03T19:01:21.213Z,1.77
2023-04-03T19:06:24.196Z,1.68
2023-04-03T19:11:30.092Z,1.58
2023-04-03T19:16:33.637Z,1.48
2023-04-03T19:21:40.679Z,1.37
2023-04-03T19:26:43.929Z,1.25
2023-04-03T19:31:46.544Z,1.09
2023-04-03T19:36:49.516Z,0.97
2023-04-03T19:41:51.996Z,0.91
2023-04-03T19:46:55.516Z,0.75
2023-04-03T19:51:58.915Z,0.62
2023-04-03T19:57:01.342Z,0.53
2023-04-03T20:02:03.831Z,0.42
2023-04-03T20:07:06.970Z,0.30
2023-04-03T20:12:10.748Z,0.19
2023-04-03T20:17:13.526Z,0.13
2023-04-03T20:22:16.829Z,0.04
2023-04-03T20:27:20.243Z,0.04
2023-04-03T20:32:22.796Z,-0.13
2023-04-03T20:37:27.891Z,-0.16
2023-04-03T20:42:31.129Z,-0.21
2023-04-03T20:47:34.727Z,-0.35
2023-04-03T20:52:47.427Z,-0.35
2023-04-03T20:57:54.278Z,-0.43
2023-04-03T21:03:07.603Z,-0.47
2023-04-03T21:08:11.335Z,-0.53
2023-04-03T21:13:17.280Z,-0.53
2023-04-03T21:18:20.447Z,-0.43
2023-04-03T21:23:24.335Z,-0.42
2023-04-03T21:28:27.358Z,-0.47
2023-04-03T21:33:30.038Z,-0.45
2023-04-03T21:38:32.433Z,-0.41
2023-04-03T21:43:35.431Z,-0.52
2023-04-03T21:48:41.593Z,-0.59
2023-04-03T21:53:45.829Z,-0.62
2023-04-03T21:58:51.029Z,-0.66
2023-04-03T22:03:53.474Z,-0.72
2023-04-03T22:08:57.093Z,-0.79
2023-04-03T22:14:00.095Z,-0.81
2023-04-03T22:19:02.907Z,-0.82
2023-04-03T22:24:06.253Z,-0.85
2023-04-03T22:29:08.772Z,-0.96
2023-04-03T22:34:11.208Z,-0.98
2023-04-03T22:39:16.411Z,-1.03
2023-04-03T22:44:18.885Z,-1.10
2023-04-03T22:49:21.645Z,-1.16
2023-04-03T22:54:24.506Z,-1.17
2023-04-03T22:59:27.096Z,-1.15
2023-04-03T23:04:29.691Z,-1.13
2023-04-03T23:09:42.143Z,-1.15
2023-04-03T23:14:44.937Z,-1.25
2023-04-03T23:19:48.054Z,-1.35
2023-04-03T23:24:50.833Z,-1.38
2023-04-03T23:29:53.946Z,-1.48
2023-04-03T23:34:56.687Z,-1.37
2023-04-03T23:40:02.218Z,-1.26
2023-04-03T23:45:05.453Z,-1.21
2023-04-03T23:50:07.843Z,-1.13
2023-04-03T23:55:10.287Z,-1.01
